sensor_id;sensor_type;location;lat;lon;timestamp;temperature;humidity
16347;DHT22;8283;48.504;13.734;2023-12-20T00:01:05;3.70;92.50
16347;DHT22;8283;48.504;13.734;2023-12-20T00:03:24;3.80;92.40
16347;DHT22;8283;48.504;13.734;2023-12-20T00:05:43;3.80;92.20
16347;DHT22;8283;48.504;13.734;2023-12-20T00:08:03;3.80;92.20
16347;DHT22;8283;48.504;13.734;2023-12-20T00:10:24;3.70;92.20
16347;DHT22;8283;48.504;13.734;2023-12-20T00:12:43;3.70;92.50
16347;DHT22;8283;48.504;13.734;2023-12-20T00:15:02;3.70;92.20
16347;DHT22;8283;48.504;13.734;2023-12-20T00:17:22;3.70;92.20
16347;DHT22;8283;48.504;13.734;2023-12-20T00:19:41;3.70;92.20
16347;DHT22;8283;48.504;13.734;2023-12-20T00:22:01;3.70;92.30
16347;DHT22;8283;48.504;13.734;2023-12-20T00:24:20;3.70;92.30
16347;DHT22;8283;48.504;13.734;2023-12-20T00:26:40;3.70;92.30
16347;DHT22;8283;48.504;13.734;2023-12-20T00:28:59;3.70;92.30
16347;DHT22;8283;48.504;13.734;2023-12-20T00:31:19;3.70;92.30
16347;DHT22;8283;48.504;13.734;2023-12-20T00:33:38;3.70;92.30
16347;DHT22;8283;48.504;13.734;2023-12-20T00:35:58;3.70;92.30
16347;DHT22;8283;48.504;13.734;2023-12-20T00:38:17;3.70;92.30
16347;DHT22;8283;48.504;13.734;2023-12-20T00:40:37;3.70;92.30
16347;DHT22;8283;48.504;13.734;2023-12-20T00:42:56;3.70;92.40
16347;DHT22;8283;48.504;13.734;2023-12-20T00:45:16;3.70;92.30
16347;DHT22;8283;48.504;13.734;2023-12-20T00:47:35;3.70;92.30
16347;DHT22;8283;48.504;13.734;2023-12-20T00:49:54;3.80;92.40
16347;DHT22;8283;48.504;13.734;2023-12-20T00:52:14;3.80;92.40
16347;DHT22;8283;48.504;13.734;2023-12-20T00:54:34;3.80;92.40
16347;DHT22;8283;48.504;13.734;2023-12-20T00:56:54;3.80;92.30
16347;DHT22;8283;48.504;13.734;2023-12-20T00:59:13;3.80;92.20
16347;DHT22;8283;48.504;13.734;2023-12-20T01:01:34;3.80;92.20
16347;DHT22;8283;48.504;13.734;2023-12-20T01:03:53;3.70;92.20
16347;DHT22;8283;48.504;13.734;2023-12-20T01:06:12;3.70;92.20
16347;DHT22;8283;48.504;13.734;2023-12-20T01:08:31;3.70;92.30
16347;DHT22;8283;48.504;13.734;2023-12-20T01:10:51;3.70;92.30
16347;DHT22;8283;48.504;13.734;2023-12-20T01:13:11;3.70;92.40
16347;DHT22;8283;48.504;13.734;2023-12-20T01:15:30;3.80;92.40
16347;DHT22;8283;48.504;13.734;2023-12-20T01:17:49;3.80;92.50
16347;DHT22;8283;48.504;13.734;2023-12-20T01:20:09;3.80;92.50
16347;DHT22;8283;48.504;13.734;2023-12-20T01:22:29;3.80;92.50
16347;DHT22;8283;48.504;13.734;2023-12-20T01:24:48;3.90;92.60
16347;DHT22;8283;48.504;13.734;2023-12-20T01:27:08;3.90;92.60
16347;DHT22;8283;48.504;13.734;2023-12-20T01:29:27;3.90;92.60
16347;DHT22;8283;48.504;13.734;2023-12-20T01:31:47;3.90;92.90
16347;DHT22;8283;48.504;13.734;2023-12-20T01:34:07;4.00;92.50
16347;DHT22;8283;48.504;13.734;2023-12-20T01:36:26;4.00;92.50
16347;DHT22;8283;48.504;13.734;2023-12-20T01:38:46;4.00;92.50
16347;DHT22;8283;48.504;13.734;2023-12-20T01:41:05;4.00;92.50
16347;DHT22;8283;48.504;13.734;2023-12-20T01:43:24;4.00;92.50
16347;DHT22;8283;48.504;13.734;2023-12-20T01:45:44;4.10;92.60
16347;DHT22;8283;48.504;13.734;2023-12-20T01:48:05;4.10;92.60
16347;DHT22;8283;48.504;13.734;2023-12-20T01:50:24;4.10;92.70
16347;DHT22;8283;48.504;13.734;2023-12-20T01:52:45;4.20;92.80
16347;DHT22;8283;48.504;13.734;2023-12-20T01:55:04;4.20;92.60
16347;DHT22;8283;48.504;13.734;2023-12-20T01:57:31;4.20;92.60
16347;DHT22;8283;48.504;13.734;2023-12-20T01:59:51;4.20;92.60
16347;DHT22;8283;48.504;13.734;2023-12-20T02:02:11;4.20;92.60
16347;DHT22;8283;48.504;13.734;2023-12-20T02:04:31;4.20;92.60
16347;DHT22;8283;48.504;13.734;2023-12-20T02:06:52;4.20;92.50
16347;DHT22;8283;48.504;13.734;2023-12-20T02:09:12;4.20;92.60
16347;DHT22;8283;48.504;13.734;2023-12-20T02:11:31;4.30;92.80
16347;DHT22;8283;48.504;13.734;2023-12-20T02:13:53;4.30;92.50
16347;DHT22;8283;48.504;13.734;2023-12-20T02:16:12;4.30;92.60
16347;DHT22;8283;48.504;13.734;2023-12-20T02:18:32;4.30;92.60
16347;DHT22;8283;48.504;13.734;2023-12-20T02:20:51;4.30;92.60
16347;DHT22;8283;48.504;13.734;2023-12-20T02:23:11;4.30;92.60
16347;DHT22;8283;48.504;13.734;2023-12-20T02:25:30;4.40;92.70
16347;DHT22;8283;48.504;13.734;2023-12-20T02:27:50;4.40;92.60
16347;DHT22;8283;48.504;13.734;2023-12-20T02:30:10;4.40;92.60
16347;DHT22;8283;48.504;13.734;2023-12-20T02:32:29;4.40;92.70
16347;DHT22;8283;48.504;13.734;2023-12-20T02:34:49;4.40;92.60
16347;DHT22;8283;48.504;13.734;2023-12-20T02:37:08;4.50;92.70
16347;DHT22;8283;48.504;13.734;2023-12-20T02:39:28;4.50;92.60
16347;DHT22;8283;48.504;13.734;2023-12-20T02:41:47;4.50;92.60
16347;DHT22;8283;48.504;13.734;2023-12-20T02:44:06;4.50;92.60
16347;DHT22;8283;48.504;13.734;2023-12-20T02:46:26;4.50;92.60
16347;DHT22;8283;48.504;13.734;2023-12-20T02:48:45;4.60;92.60
16347;DHT22;8283;48.504;13.734;2023-12-20T02:51:06;4.60;92.60
16347;DHT22;8283;48.504;13.734;2023-12-20T02:53:25;4.60;92.60
16347;DHT22;8283;48.504;13.734;2023-12-20T02:55:44;4.60;92.50
16347;DHT22;8283;48.504;13.734;2023-12-20T02:58:03;4.60;92.80
16347;DHT22;8283;48.504;13.734;2023-12-20T03:00:23;4.60;92.40
16347;DHT22;8283;48.504;13.734;2023-12-20T03:02:42;4.60;92.40
16347;DHT22;8283;48.504;13.734;2023-12-20T03:05:02;4.60;92.50
16347;DHT22;8283;48.504;13.734;2023-12-20T03:07:21;4.60;92.50
16347;DHT22;8283;48.504;13.734;2023-12-20T03:09:40;4.60;92.50
16347;DHT22;8283;48.504;13.734;2023-12-20T03:11:59;4.60;92.50
16347;DHT22;8283;48.504;13.734;2023-12-20T03:14:18;4.60;92.50
16347;DHT22;8283;48.504;13.734;2023-12-20T03:16:38;4.60;92.60
16347;DHT22;8283;48.504;13.734;2023-12-20T03:18:57;4.60;92.60
16347;DHT22;8283;48.504;13.734;2023-12-20T03:21:16;4.60;92.60
16347;DHT22;8283;48.504;13.734;2023-12-20T03:23:35;4.70;92.60
16347;DHT22;8283;48.504;13.734;2023-12-20T03:25:55;4.70;92.60
16347;DHT22;8283;48.504;13.734;2023-12-20T03:28:15;4.70;92.60
16347;DHT22;8283;48.504;13.734;2023-12-20T03:30:35;4.70;92.60
16347;DHT22;8283;48.504;13.734;2023-12-20T03:32:54;4.70;92.60
16347;DHT22;8283;48.504;13.734;2023-12-20T03:35:13;4.70;92.60
16347;DHT22;8283;48.504;13.734;2023-12-20T03:37:33;4.70;92.50
16347;DHT22;8283;48.504;13.734;2023-12-20T03:39:52;4.80;92.60
16347;DHT22;8283;48.504;13.734;2023-12-20T03:42:11;4.80;92.50
16347;DHT22;8283;48.504;13.734;2023-12-20T03:44:32;4.80;92.50
16347;DHT22;8283;48.504;13.734;2023-12-20T03:46:51;4.80;92.50
16347;DHT22;8283;48.504;13.734;2023-12-20T03:49:10;4.80;92.50
16347;DHT22;8283;48.504;13.734;2023-12-20T03:51:29;4.80;92.60
16347;DHT22;8283;48.504;13.734;2023-12-20T03:53:48;4.80;92.60
16347;DHT22;8283;48.504;13.734;2023-12-20T03:56:07;4.80;92.60
16347;DHT22;8283;48.504;13.734;2023-12-20T03:58:27;4.80;92.60
16347;DHT22;8283;48.504;13.734;2023-12-20T04:00:46;4.80;92.50
16347;DHT22;8283;48.504;13.734;2023-12-20T04:03:06;4.80;92.50
16347;DHT22;8283;48.504;13.734;2023-12-20T04:05:26;4.80;92.50
16347;DHT22;8283;48.504;13.734;2023-12-20T04:07:45;4.80;92.50
16347;DHT22;8283;48.504;13.734;2023-12-20T04:10:05;4.80;92.50
16347;DHT22;8283;48.504;13.734;2023-12-20T04:12:24;4.80;92.50
16347;DHT22;8283;48.504;13.734;2023-12-20T04:14:43;4.80;92.50
16347;DHT22;8283;48.504;13.734;2023-12-20T04:17:03;4.80;92.50
16347;DHT22;8283;48.504;13.734;2023-12-20T04:19:22;4.80;92.50
16347;DHT22;8283;48.504;13.734;2023-12-20T04:21:41;4.90;92.60
16347;DHT22;8283;48.504;13.734;2023-12-20T04:24:01;4.90;92.60
16347;DHT22;8283;48.504;13.734;2023-12-20T04:26:20;4.90;92.70
16347;DHT22;8283;48.504;13.734;2023-12-20T04:28:39;4.90;92.70
16347;DHT22;8283;48.504;13.734;2023-12-20T04:30:59;4.90;92.70
16347;DHT22;8283;48.504;13.734;2023-12-20T04:33:18;5.00;92.60
16347;DHT22;8283;48.504;13.734;2023-12-20T04:35:38;4.90;92.50
16347;DHT22;8283;48.504;13.734;2023-12-20T04:37:59;4.90;92.50
16347;DHT22;8283;48.504;13.734;2023-12-20T04:40:19;4.90;92.50
16347;DHT22;8283;48.504;13.734;2023-12-20T04:42:38;4.90;92.40
16347;DHT22;8283;48.504;13.734;2023-12-20T04:44:57;4.90;92.40
16347;DHT22;8283;48.504;13.734;2023-12-20T04:47:17;4.90;92.40
16347;DHT22;8283;48.504;13.734;2023-12-20T04:49:36;4.90;92.50
16347;DHT22;8283;48.504;13.734;2023-12-20T04:51:55;4.90;92.50
16347;DHT22;8283;48.504;13.734;2023-12-20T04:54:15;4.90;92.50
16347;DHT22;8283;48.504;13.734;2023-12-20T04:56:34;4.90;92.60
16347;DHT22;8283;48.504;13.734;2023-12-20T04:58:54;4.90;92.90
16347;DHT22;8283;48.504;13.734;2023-12-20T05:01:13;4.90;92.60
16347;DHT22;8283;48.504;13.734;2023-12-20T05:03:33;4.90;92.60
16347;DHT22;8283;48.504;13.734;2023-12-20T05:05:52;5.00;92.70
16347;DHT22;8283;48.504;13.734;2023-12-20T05:08:11;5.00;92.70
16347;DHT22;8283;48.504;13.734;2023-12-20T05:10:30;5.00;92.70
16347;DHT22;8283;48.504;13.734;2023-12-20T05:12:49;5.00;92.70
16347;DHT22;8283;48.504;13.734;2023-12-20T05:15:09;5.00;92.60
16347;DHT22;8283;48.504;13.734;2023-12-20T05:17:28;5.10;92.70
16347;DHT22;8283;48.504;13.734;2023-12-20T05:19:48;5.10;92.70
16347;DHT22;8283;48.504;13.734;2023-12-20T05:22:07;5.10;92.70
16347;DHT22;8283;48.504;13.734;2023-12-20T05:24:27;5.10;92.70
16347;DHT22;8283;48.504;13.734;2023-12-20T05:26:46;5.10;92.70
16347;DHT22;8283;48.504;13.734;2023-12-20T05:29:05;5.10;92.80
16347;DHT22;8283;48.504;13.734;2023-12-20T05:31:25;5.20;93.10
16347;DHT22;8283;48.504;13.734;2023-12-20T05:33:44;4.90;92.70
16347;DHT22;8283;48.504;13.734;2023-12-20T05:36:11;5.20;92.70
16347;DHT22;8283;48.504;13.734;2023-12-20T05:38:35;5.20;92.70
16347;DHT22;8283;48.504;13.734;2023-12-20T05:40:55;5.20;92.60
16347;DHT22;8283;48.504;13.734;2023-12-20T05:43:14;5.20;92.70
16347;DHT22;8283;48.504;13.734;2023-12-20T05:45:33;5.20;92.70
16347;DHT22;8283;48.504;13.734;2023-12-20T05:47:53;5.20;92.70
16347;DHT22;8283;48.504;13.734;2023-12-20T05:50:13;5.20;92.80
16347;DHT22;8283;48.504;13.734;2023-12-20T05:52:32;5.20;92.80
16347;DHT22;8283;48.504;13.734;2023-12-20T05:54:51;5.20;92.80
16347;DHT22;8283;48.504;13.734;2023-12-20T05:57:11;5.20;92.80
16347;DHT22;8283;48.504;13.734;2023-12-20T05:59:30;5.20;92.80
16347;DHT22;8283;48.504;13.734;2023-12-20T06:01:49;5.20;92.80
16347;DHT22;8283;48.504;13.734;2023-12-20T06:04:09;5.30;92.80
16347;DHT22;8283;48.504;13.734;2023-12-20T06:06:28;5.30;92.80
16347;DHT22;8283;48.504;13.734;2023-12-20T06:08:47;5.30;92.80
16347;DHT22;8283;48.504;13.734;2023-12-20T06:11:06;5.30;92.80
16347;DHT22;8283;48.504;13.734;2023-12-20T06:13:26;5.30;92.80
16347;DHT22;8283;48.504;13.734;2023-12-20T06:15:46;5.30;92.80
16347;DHT22;8283;48.504;13.734;2023-12-20T06:18:05;5.30;92.80
16347;DHT22;8283;48.504;13.734;2023-12-20T06:20:24;5.30;92.80
16347;DHT22;8283;48.504;13.734;2023-12-20T06:22:44;5.40;92.80
16347;DHT22;8283;48.504;13.734;2023-12-20T06:25:03;5.40;92.70
16347;DHT22;8283;48.504;13.734;2023-12-20T06:27:23;5.70;92.70
16347;DHT22;8283;48.504;13.734;2023-12-20T06:29:42;5.40;92.70
16347;DHT22;8283;48.504;13.734;2023-12-20T06:32:04;5.40;92.70
16347;DHT22;8283;48.504;13.734;2023-12-20T06:34:23;5.40;92.70
16347;DHT22;8283;48.504;13.734;2023-12-20T06:36:42;5.40;92.80
16347;DHT22;8283;48.504;13.734;2023-12-20T06:39:01;5.40;92.70
16347;DHT22;8283;48.504;13.734;2023-12-20T06:41:21;5.40;92.70
16347;DHT22;8283;48.504;13.734;2023-12-20T06:43:40;5.40;92.70
16347;DHT22;8283;48.504;13.734;2023-12-20T06:46:03;5.40;92.70
16347;DHT22;8283;48.504;13.734;2023-12-20T06:48:22;5.30;92.80
16347;DHT22;8283;48.504;13.734;2023-12-20T06:50:41;5.30;92.80
16347;DHT22;8283;48.504;13.734;2023-12-20T06:53:01;5.40;92.80
16347;DHT22;8283;48.504;13.734;2023-12-20T06:55:26;5.40;92.80
16347;DHT22;8283;48.504;13.734;2023-12-20T06:57:45;5.40;92.70
16347;DHT22;8283;48.504;13.734;2023-12-20T07:00:05;5.40;92.70
16347;DHT22;8283;48.504;13.734;2023-12-20T07:02:25;5.40;92.70
16347;DHT22;8283;48.504;13.734;2023-12-20T07:04:44;5.40;92.70
16347;DHT22;8283;48.504;13.734;2023-12-20T07:07:04;5.40;92.60
16347;DHT22;8283;48.504;13.734;2023-12-20T07:09:23;5.40;92.70
16347;DHT22;8283;48.504;13.734;2023-12-20T07:11:42;5.40;92.70
16347;DHT22;8283;48.504;13.734;2023-12-20T07:14:02;5.40;92.70
16347;DHT22;8283;48.504;13.734;2023-12-20T07:16:21;5.40;92.70
16347;DHT22;8283;48.504;13.734;2023-12-20T07:18:42;5.40;92.80
16347;DHT22;8283;48.504;13.734;2023-12-20T07:21:01;5.40;92.80
16347;DHT22;8283;48.504;13.734;2023-12-20T07:23:21;5.50;92.80
16347;DHT22;8283;48.504;13.734;2023-12-20T07:25:40;5.50;92.80
16347;DHT22;8283;48.504;13.734;2023-12-20T07:27:59;5.50;92.70
16347;DHT22;8283;48.504;13.734;2023-12-20T07:30:19;5.50;92.80
16347;DHT22;8283;48.504;13.734;2023-12-20T07:32:39;5.50;92.80
16347;DHT22;8283;48.504;13.734;2023-12-20T07:34:58;5.50;92.80
16347;DHT22;8283;48.504;13.734;2023-12-20T07:37:17;5.50;92.80
16347;DHT22;8283;48.504;13.734;2023-12-20T07:39:37;5.50;92.90
16347;DHT22;8283;48.504;13.734;2023-12-20T07:41:56;5.50;92.90
16347;DHT22;8283;48.504;13.734;2023-12-20T07:44:15;5.50;92.90
16347;DHT22;8283;48.504;13.734;2023-12-20T07:46:35;5.50;92.90
16347;DHT22;8283;48.504;13.734;2023-12-20T07:48:54;5.40;92.90
16347;DHT22;8283;48.504;13.734;2023-12-20T07:51:14;5.60;93.00
16347;DHT22;8283;48.504;13.734;2023-12-20T07:53:33;5.60;93.00
16347;DHT22;8283;48.504;13.734;2023-12-20T07:55:52;5.60;93.10
16347;DHT22;8283;48.504;13.734;2023-12-20T07:58:12;5.60;93.10
16347;DHT22;8283;48.504;13.734;2023-12-20T08:00:31;5.60;93.10
16347;DHT22;8283;48.504;13.734;2023-12-20T08:02:51;5.60;93.10
16347;DHT22;8283;48.504;13.734;2023-12-20T08:05:10;5.70;93.20
16347;DHT22;8283;48.504;13.734;2023-12-20T08:07:29;5.70;93.20
16347;DHT22;8283;48.504;13.734;2023-12-20T08:09:49;5.70;93.20
16347;DHT22;8283;48.504;13.734;2023-12-20T08:12:08;5.80;93.20
16347;DHT22;8283;48.504;13.734;2023-12-20T08:14:28;5.80;93.20
16347;DHT22;8283;48.504;13.734;2023-12-20T08:16:47;5.80;93.30
16347;DHT22;8283;48.504;13.734;2023-12-20T08:19:07;5.80;93.20
16347;DHT22;8283;48.504;13.734;2023-12-20T08:21:27;5.80;93.30
16347;DHT22;8283;48.504;13.734;2023-12-20T08:23:46;5.90;93.30
16347;DHT22;8283;48.504;13.734;2023-12-20T08:26:07;5.90;93.20
16347;DHT22;8283;48.504;13.734;2023-12-20T08:28:27;6.00;93.30
16347;DHT22;8283;48.504;13.734;2023-12-20T08:30:46;6.00;93.30
16347;DHT22;8283;48.504;13.734;2023-12-20T08:33:06;6.00;93.30
16347;DHT22;8283;48.504;13.734;2023-12-20T08:35:30;6.00;93.40
16347;DHT22;8283;48.504;13.734;2023-12-20T08:37:49;6.10;93.40
16347;DHT22;8283;48.504;13.734;2023-12-20T08:40:09;6.10;93.40
16347;DHT22;8283;48.504;13.734;2023-12-20T08:42:28;6.10;93.40
16347;DHT22;8283;48.504;13.734;2023-12-20T08:44:50;6.10;93.50
16347;DHT22;8283;48.504;13.734;2023-12-20T08:47:10;6.10;93.40
16347;DHT22;8283;48.504;13.734;2023-12-20T08:49:33;6.20;93.40
16347;DHT22;8283;48.504;13.734;2023-12-20T08:51:52;6.20;93.40
16347;DHT22;8283;48.504;13.734;2023-12-20T08:54:11;6.20;93.40
16347;DHT22;8283;48.504;13.734;2023-12-20T08:56:32;6.20;93.40
16347;DHT22;8283;48.504;13.734;2023-12-20T08:58:51;6.30;93.50
16347;DHT22;8283;48.504;13.734;2023-12-20T09:01:10;6.30;93.50
16347;DHT22;8283;48.504;13.734;2023-12-20T09:03:29;6.30;93.50
16347;DHT22;8283;48.504;13.734;2023-12-20T09:05:49;6.30;93.50
16347;DHT22;8283;48.504;13.734;2023-12-20T09:08:08;6.40;93.80
16347;DHT22;8283;48.504;13.734;2023-12-20T09:10:29;6.40;93.50
16347;DHT22;8283;48.504;13.734;2023-12-20T09:12:50;6.40;93.40
16347;DHT22;8283;48.504;13.734;2023-12-20T09:15:10;6.40;93.50
16347;DHT22;8283;48.504;13.734;2023-12-20T09:17:29;6.50;93.50
16347;DHT22;8283;48.504;13.734;2023-12-20T09:19:49;6.50;93.50
16347;DHT22;8283;48.504;13.734;2023-12-20T09:22:08;6.50;93.50
16347;DHT22;8283;48.504;13.734;2023-12-20T09:24:28;6.50;93.60
16347;DHT22;8283;48.504;13.734;2023-12-20T09:26:47;6.60;93.60
16347;DHT22;8283;48.504;13.734;2023-12-20T09:29:06;6.60;93.60
16347;DHT22;8283;48.504;13.734;2023-12-20T09:31:26;6.60;93.60
16347;DHT22;8283;48.504;13.734;2023-12-20T09:33:46;6.60;93.60
16347;DHT22;8283;48.504;13.734;2023-12-20T09:36:05;6.60;93.60
16347;DHT22;8283;48.504;13.734;2023-12-20T09:38:25;6.70;93.70
16347;DHT22;8283;48.504;13.734;2023-12-20T09:40:44;6.70;93.70
16347;DHT22;8283;48.504;13.734;2023-12-20T09:43:04;6.70;93.70
16347;DHT22;8283;48.504;13.734;2023-12-20T09:45:28;6.70;93.80
16347;DHT22;8283;48.504;13.734;2023-12-20T09:47:50;6.70;93.80
16347;DHT22;8283;48.504;13.734;2023-12-20T09:50:12;6.80;93.90
16347;DHT22;8283;48.504;13.734;2023-12-20T09:52:32;6.80;93.90
16347;DHT22;8283;48.504;13.734;2023-12-20T09:54:55;6.90;93.90
16347;DHT22;8283;48.504;13.734;2023-12-20T09:57:14;6.90;94.00
16347;DHT22;8283;48.504;13.734;2023-12-20T09:59:34;7.00;94.10
16347;DHT22;8283;48.504;13.734;2023-12-20T10:01:55;7.00;94.20
16347;DHT22;8283;48.504;13.734;2023-12-20T10:04:16;7.00;94.20
16347;DHT22;8283;48.504;13.734;2023-12-20T10:06:36;7.10;94.20
16347;DHT22;8283;48.504;13.734;2023-12-20T10:08:56;7.20;94.30
16347;DHT22;8283;48.504;13.734;2023-12-20T10:11:15;7.20;94.30
16347;DHT22;8283;48.504;13.734;2023-12-20T10:13:39;7.30;94.30
16347;DHT22;8283;48.504;13.734;2023-12-20T10:16:00;7.30;94.30
16347;DHT22;8283;48.504;13.734;2023-12-20T10:18:20;7.30;94.30
16347;DHT22;8283;48.504;13.734;2023-12-20T10:20:41;7.40;94.30
16347;DHT22;8283;48.504;13.734;2023-12-20T10:23:02;7.40;94.30
16347;DHT22;8283;48.504;13.734;2023-12-20T10:25:22;7.50;94.30
16347;DHT22;8283;48.504;13.734;2023-12-20T10:27:41;7.50;94.30
16347;DHT22;8283;48.504;13.734;2023-12-20T10:30:01;7.50;94.30
16347;DHT22;8283;48.504;13.734;2023-12-20T10:32:25;7.60;94.60
16347;DHT22;8283;48.504;13.734;2023-12-20T10:34:45;7.60;94.30
16347;DHT22;8283;48.504;13.734;2023-12-20T10:37:04;7.60;94.20
16347;DHT22;8283;48.504;13.734;2023-12-20T10:39:24;7.70;94.30
16347;DHT22;8283;48.504;13.734;2023-12-20T10:41:43;7.70;94.20
16347;DHT22;8283;48.504;13.734;2023-12-20T10:44:04;7.70;94.20
16347;DHT22;8283;48.504;13.734;2023-12-20T10:46:24;7.80;94.30
16347;DHT22;8283;48.504;13.734;2023-12-20T10:48:45;7.80;94.30
16347;DHT22;8283;48.504;13.734;2023-12-20T10:51:05;7.80;94.60
16347;DHT22;8283;48.504;13.734;2023-12-20T10:53:25;7.80;94.30
16347;DHT22;8283;48.504;13.734;2023-12-20T10:55:44;7.90;94.30
16347;DHT22;8283;48.504;13.734;2023-12-20T10:58:08;7.90;94.40
16347;DHT22;8283;48.504;13.734;2023-12-20T11:00:29;7.90;94.50
16347;DHT22;8283;48.504;13.734;2023-12-20T11:02:50;8.00;94.50
16347;DHT22;8283;48.504;13.734;2023-12-20T11:08:09;8.10;94.70
16347;DHT22;8283;48.504;13.734;2023-12-20T11:10:54;8.10;94.60
16347;DHT22;8283;48.504;13.734;2023-12-20T11:13:26;8.10;94.70
16347;DHT22;8283;48.504;13.734;2023-12-20T11:15:46;8.20;94.60
16347;DHT22;8283;48.504;13.734;2023-12-20T11:18:05;8.20;94.40
16347;DHT22;8283;48.504;13.734;2023-12-20T11:20:36;8.20;94.40
16347;DHT22;8283;48.504;13.734;2023-12-20T11:22:58;8.20;94.60
16347;DHT22;8283;48.504;13.734;2023-12-20T11:25:17;8.30;94.40
16347;DHT22;8283;48.504;13.734;2023-12-20T11:27:41;8.30;94.40
16347;DHT22;8283;48.504;13.734;2023-12-20T11:30:03;8.30;94.50
16347;DHT22;8283;48.504;13.734;2023-12-20T11:34:44;8.40;94.60
16347;DHT22;8283;48.504;13.734;2023-12-20T11:37:03;8.40;94.70
16347;DHT22;8283;48.504;13.734;2023-12-20T11:39:25;8.50;94.80
16347;DHT22;8283;48.504;13.734;2023-12-20T11:41:45;8.50;94.90
16347;DHT22;8283;48.504;13.734;2023-12-20T11:44:04;8.60;94.90
16347;DHT22;8283;48.504;13.734;2023-12-20T11:46:24;8.70;94.90
16347;DHT22;8283;48.504;13.734;2023-12-20T11:48:44;8.70;94.80
16347;DHT22;8283;48.504;13.734;2023-12-20T11:51:14;8.80;94.70
16347;DHT22;8283;48.504;13.734;2023-12-20T11:53:33;8.80;94.70
16347;DHT22;8283;48.504;13.734;2023-12-20T11:55:54;8.90;94.60
16347;DHT22;8283;48.504;13.734;2023-12-20T11:58:13;8.90;94.50
16347;DHT22;8283;48.504;13.734;2023-12-20T12:00:34;8.90;94.40
16347;DHT22;8283;48.504;13.734;2023-12-20T12:02:57;8.90;94.30
16347;DHT22;8283;48.504;13.734;2023-12-20T12:05:17;9.00;94.30
16347;DHT22;8283;48.504;13.734;2023-12-20T12:07:36;9.00;94.20
16347;DHT22;8283;48.504;13.734;2023-12-20T12:09:56;9.00;94.20
16347;DHT22;8283;48.504;13.734;2023-12-20T12:12:15;9.00;94.20
16347;DHT22;8283;48.504;13.734;2023-12-20T12:14:35;9.00;94.10
16347;DHT22;8283;48.504;13.734;2023-12-20T12:16:55;9.00;94.10
16347;DHT22;8283;48.504;13.734;2023-12-20T12:19:25;9.00;94.00
16347;DHT22;8283;48.504;13.734;2023-12-20T12:21:45;9.00;94.10
16347;DHT22;8283;48.504;13.734;2023-12-20T12:24:08;9.00;94.10
16347;DHT22;8283;48.504;13.734;2023-12-20T12:26:30;9.00;94.30
16347;DHT22;8283;48.504;13.734;2023-12-20T12:28:50;9.00;94.30
16347;DHT22;8283;48.504;13.734;2023-12-20T12:31:14;9.10;94.30
16347;DHT22;8283;48.504;13.734;2023-12-20T12:33:36;9.10;94.30
16347;DHT22;8283;48.504;13.734;2023-12-20T12:35:55;9.10;94.20
16347;DHT22;8283;48.504;13.734;2023-12-20T12:38:15;9.10;94.10
16347;DHT22;8283;48.504;13.734;2023-12-20T12:40:35;9.10;94.00
16347;DHT22;8283;48.504;13.734;2023-12-20T12:42:55;9.10;94.00
16347;DHT22;8283;48.504;13.734;2023-12-20T12:45:14;9.10;94.10
16347;DHT22;8283;48.504;13.734;2023-12-20T12:47:34;9.10;94.10
16347;DHT22;8283;48.504;13.734;2023-12-20T12:49:54;9.10;94.20
16347;DHT22;8283;48.504;13.734;2023-12-20T12:52:14;9.20;94.20
16347;DHT22;8283;48.504;13.734;2023-12-20T12:54:33;9.20;94.20
16347;DHT22;8283;48.504;13.734;2023-12-20T12:56:52;9.20;94.20
16347;DHT22;8283;48.504;13.734;2023-12-20T12:59:12;9.30;94.30
16347;DHT22;8283;48.504;13.734;2023-12-20T13:01:31;9.30;94.20
16347;DHT22;8283;48.504;13.734;2023-12-20T13:03:50;9.30;94.20
16347;DHT22;8283;48.504;13.734;2023-12-20T13:06:10;9.30;94.10
16347;DHT22;8283;48.504;13.734;2023-12-20T13:08:29;9.30;94.10
16347;DHT22;8283;48.504;13.734;2023-12-20T13:10:49;9.30;93.90
16347;DHT22;8283;48.504;13.734;2023-12-20T13:13:09;9.30;94.00
16347;DHT22;8283;48.504;13.734;2023-12-20T13:15:28;9.30;93.50
16347;DHT22;8283;48.504;13.734;2023-12-20T13:17:47;9.30;93.40
16347;DHT22;8283;48.504;13.734;2023-12-20T13:20:07;9.20;93.20
16347;DHT22;8283;48.504;13.734;2023-12-20T13:22:27;9.20;93.10
16347;DHT22;8283;48.504;13.734;2023-12-20T13:24:47;9.10;92.90
16347;DHT22;8283;48.504;13.734;2023-12-20T13:27:07;9.00;92.70
16347;DHT22;8283;48.504;13.734;2023-12-20T13:29:27;8.90;92.70
16347;DHT22;8283;48.504;13.734;2023-12-20T13:31:46;8.90;92.50
16347;DHT22;8283;48.504;13.734;2023-12-20T13:34:06;8.80;92.50
16347;DHT22;8283;48.504;13.734;2023-12-20T13:36:25;8.80;92.60
16347;DHT22;8283;48.504;13.734;2023-12-20T13:38:45;8.80;92.60
16347;DHT22;8283;48.504;13.734;2023-12-20T13:41:04;8.70;92.60
16347;DHT22;8283;48.504;13.734;2023-12-20T13:43:24;8.70;92.60
16347;DHT22;8283;48.504;13.734;2023-12-20T13:45:44;8.60;92.60
16347;DHT22;8283;48.504;13.734;2023-12-20T13:48:03;8.60;92.70
16347;DHT22;8283;48.504;13.734;2023-12-20T13:50:23;8.60;92.80
16347;DHT22;8283;48.504;13.734;2023-12-20T13:52:43;8.60;92.80
16347;DHT22;8283;48.504;13.734;2023-12-20T13:55:03;8.60;92.80
16347;DHT22;8283;48.504;13.734;2023-12-20T13:57:24;8.60;92.70
16347;DHT22;8283;48.504;13.734;2023-12-20T13:59:43;8.60;92.70
16347;DHT22;8283;48.504;13.734;2023-12-20T14:02:04;8.60;92.70
16347;DHT22;8283;48.504;13.734;2023-12-20T14:04:23;8.60;92.70
16347;DHT22;8283;48.504;13.734;2023-12-20T14:06:42;8.60;92.70
16347;DHT22;8283;48.504;13.734;2023-12-20T14:09:02;8.60;92.60
16347;DHT22;8283;48.504;13.734;2023-12-20T14:11:22;8.60;92.60
16347;DHT22;8283;48.504;13.734;2023-12-20T14:13:41;8.60;92.60
16347;DHT22;8283;48.504;13.734;2023-12-20T14:16:02;8.50;92.50
16347;DHT22;8283;48.504;13.734;2023-12-20T14:18:23;8.50;92.80
16347;DHT22;8283;48.504;13.734;2023-12-20T14:20:42;8.50;92.50
16347;DHT22;8283;48.504;13.734;2023-12-20T14:23:02;8.50;92.40
16347;DHT22;8283;48.504;13.734;2023-12-20T14:25:22;8.50;92.40
16347;DHT22;8283;48.504;13.734;2023-12-20T14:27:42;8.50;92.40
16347;DHT22;8283;48.504;13.734;2023-12-20T14:30:03;8.40;92.30
16347;DHT22;8283;48.504;13.734;2023-12-20T14:32:23;8.40;92.30
16347;DHT22;8283;48.504;13.734;2023-12-20T14:34:43;8.40;92.30
16347;DHT22;8283;48.504;13.734;2023-12-20T14:37:02;8.40;92.30
16347;DHT22;8283;48.504;13.734;2023-12-20T14:39:21;8.40;92.30
16347;DHT22;8283;48.504;13.734;2023-12-20T14:41:42;8.40;92.30
16347;DHT22;8283;48.504;13.734;2023-12-20T14:44:01;8.30;92.30
16347;DHT22;8283;48.504;13.734;2023-12-20T14:46:24;8.30;92.20
16347;DHT22;8283;48.504;13.734;2023-12-20T14:48:43;8.70;92.30
16347;DHT22;8283;48.504;13.734;2023-12-20T14:51:02;8.30;92.20
16347;DHT22;8283;48.504;13.734;2023-12-20T14:53:22;8.20;92.20
16347;DHT22;8283;48.504;13.734;2023-12-20T14:55:41;8.20;92.10
16347;DHT22;8283;48.504;13.734;2023-12-20T14:58:01;8.20;92.10
16347;DHT22;8283;48.504;13.734;2023-12-20T15:00:20;8.20;92.10
16347;DHT22;8283;48.504;13.734;2023-12-20T15:02:40;8.20;92.00